createdAt,value
2023-01-25T00:01:18.748Z,2.78
2023-01-25T00:03:46.765Z,2.72
2023-01-25T00:06:16.045Z,2.81
2023-01-25T00:08:43.889Z,2.82
2023-01-25T00:11:11.840Z,2.79
2023-01-25T00:13:39.779Z,2.84
2023-01-25T00:16:08.890Z,2.79
2023-01-25T00:18:36.836Z,2.71
2023-01-25T00:21:13.339Z,2.70
2023-01-25T00:23:42.614Z,2.64
2023-01-25T00:26:10.532Z,2.70
2023-01-25T00:28:39.184Z,2.71
2023-01-25T00:31:08.604Z,2.72
2023-01-25T00:33:44.935Z,2.75
2023-01-25T00:36:41.758Z,2.80
2023-01-25T00:39:14.582Z,2.69
2023-01-25T00:41:44.513Z,2.49
2023-01-25T00:44:12.384Z,2.36
2023-01-25T00:46:40.488Z,2.26
2023-01-25T00:49:08.697Z,2.31
2023-01-25T00:51:36.552Z,2.31
2023-01-25T00:54:04.690Z,2.36
2023-01-25T00:56:34.389Z,2.27
2023-01-25T00:59:02.275Z,2.22
2023-01-25T01:01:30.149Z,2.21
2023-01-25T01:03:58.064Z,2.25
2023-01-25T01:06:25.935Z,2.28
2023-01-25T01:08:54.083Z,2.21
2023-01-25T01:11:24.414Z,2.09
2023-01-25T01:13:53.945Z,2.19
2023-01-25T01:16:21.824Z,2.13
2023-01-25T01:18:50.900Z,2.13
2023-01-25T01:21:19.722Z,2.18
2023-01-25T01:23:47.719Z,2.26
2023-01-25T01:26:19.454Z,2.26
2023-01-25T01:28:47.852Z,2.43
2023-01-25T01:31:19.047Z,2.40
2023-01-25T01:33:59.371Z,2.49
2023-01-25T01:36:29.665Z,2.56
2023-01-25T01:38:59.014Z,2.59
2023-01-25T01:41:26.997Z,2.64
2023-01-25T01:43:55.307Z,2.67
2023-01-25T01:46:28.677Z,2.72
2023-01-25T01:49:02.592Z,2.75
2023-01-25T01:51:42.181Z,2.72
2023-01-25T01:54:18.583Z,2.66
2023-01-25T01:56:53.195Z,2.57
2023-01-25T01:59:23.218Z,2.49
2023-01-25T02:01:52.679Z,2.49
2023-01-25T02:04:23.461Z,2.48
2023-01-25T02:06:55.625Z,2.40
2023-01-25T02:09:26.061Z,2.29
2023-01-25T02:11:54.939Z,2.16
2023-01-25T02:14:24.342Z,2.09
2023-01-25T02:16:53.691Z,2.05
2023-01-25T02:19:34.532Z,1.86
2023-01-25T02:22:07.742Z,1.94
2023-01-25T02:24:36.325Z,1.94
2023-01-25T02:27:06.449Z,1.97
2023-01-25T02:29:35.690Z,1.96
2023-01-25T02:32:05.261Z,2.01
2023-01-25T02:34:33.284Z,1.94
2023-01-25T02:37:01.393Z,1.92
2023-01-25T02:39:30.428Z,1.95
2023-01-25T02:41:58.249Z,1.90
2023-01-25T02:44:33.537Z,1.91
2023-01-25T02:47:04.581Z,1.83
2023-01-25T02:49:35.508Z,1.77
2023-01-25T02:52:04.718Z,1.74
2023-01-25T02:54:33.075Z,1.70
2023-01-25T02:57:02.487Z,1.56
2023-01-25T02:59:39.432Z,1.68
2023-01-25T03:02:08.179Z,1.67
2023-01-25T03:04:36.575Z,1.63
2023-01-25T03:07:04.541Z,1.66
2023-01-25T03:09:32.593Z,1.54
2023-01-25T03:12:00.553Z,1.65
2023-01-25T03:14:28.557Z,1.66
2023-01-25T03:16:57.757Z,1.68
2023-01-25T03:19:26.825Z,1.69
2023-01-25T03:21:54.797Z,1.69
2023-01-25T03:24:24.569Z,1.72
2023-01-25T03:27:10.205Z,1.72
2023-01-25T03:29:58.518Z,1.72
2023-01-25T03:32:32.661Z,1.70
2023-01-25T03:35:07.186Z,1.69
2023-01-25T03:37:35.369Z,1.69
2023-01-25T03:40:05.659Z,1.65
2023-01-25T03:42:34.204Z,1.61
2023-01-25T03:45:02.228Z,1.59
2023-01-25T03:47:32.476Z,1.60
2023-01-25T03:50:00.471Z,1.60
2023-01-25T03:52:45.588Z,1.61
2023-01-25T03:55:13.622Z,1.66
2023-01-25T03:57:43.560Z,1.73
2023-01-25T04:00:13.007Z,1.80
2023-01-25T04:02:50.190Z,1.87
2023-01-25T04:05:20.212Z,1.93
2023-01-25T04:07:48.619Z,1.95
2023-01-25T04:10:21.221Z,1.95
2023-01-25T04:12:50.030Z,1.89
2023-01-25T04:15:18.033Z,1.81
2023-01-25T04:17:46.219Z,1.78
2023-01-25T04:20:25.294Z,1.82
2023-01-25T04:22:55.373Z,1.83
2023-01-25T04:25:28.114Z,1.84
2023-01-25T04:27:56.058Z,1.86
2023-01-25T04:30:25.652Z,1.89
2023-01-25T04:32:55.282Z,1.86
2023-01-25T04:35:31.929Z,1.89
2023-01-25T04:38:02.114Z,1.89
2023-01-25T04:40:37.126Z,1.88
2023-01-25T04:43:07.383Z,1.87
2023-01-25T04:45:36.526Z,1.89
2023-01-25T04:48:10.692Z,1.94
2023-01-25T04:50:45.277Z,2.03
2023-01-25T04:53:14.567Z,2.06
2023-01-25T04:55:46.311Z,2.06
2023-01-25T04:58:15.194Z,2.06
2023-01-25T05:00:44.110Z,2.08
2023-01-25T05:03:12.874Z,2.08
2023-01-25T05:05:47.566Z,2.00
2023-01-25T05:08:19.090Z,1.82
2023-01-25T05:10:47.473Z,1.83
2023-01-25T05:13:38.543Z,1.79
2023-01-25T05:16:16.519Z,1.76
2023-01-25T05:18:48.903Z,1.70
2023-01-25T05:21:41.406Z,1.69
2023-01-25T05:24:10.527Z,1.79
2023-01-25T05:27:11.154Z,1.79
2023-01-25T05:29:54.251Z,1.76
2023-01-25T05:32:28.002Z,1.73
2023-01-25T05:34:58.311Z,1.75
2023-01-25T05:37:29.413Z,1.72
2023-01-25T05:40:05.388Z,1.67
2023-01-25T05:42:37.601Z,1.65
2023-01-25T05:45:10.733Z,1.63
2023-01-25T05:47:43.436Z,1.61
2023-01-25T05:50:12.150Z,1.57
2023-01-25T05:52:53.651Z,1.63
2023-01-25T05:55:21.599Z,1.59
2023-01-25T05:57:51.533Z,1.50
2023-01-25T06:00:20.334Z,1.42
2023-01-25T06:02:48.389Z,1.43
2023-01-25T06:05:20.145Z,1.37
2023-01-25T06:07:48.115Z,1.33
2023-01-25T06:10:19.468Z,1.33
2023-01-25T06:12:50.532Z,1.28
2023-01-25T06:15:18.475Z,1.26
2023-01-25T06:17:46.319Z,1.32
2023-01-25T06:20:29.365Z,1.28
2023-01-25T06:23:06.250Z,1.33
2023-01-25T06:25:35.529Z,1.34
2023-01-25T06:28:03.359Z,1.35
2023-01-25T06:30:31.282Z,1.33
2023-01-25T06:32:59.402Z,1.31
2023-01-25T06:35:27.345Z,1.22
2023-01-25T06:37:56.521Z,1.21
2023-01-25T06:40:24.516Z,1.20
2023-01-25T06:42:53.718Z,1.27
2023-01-25T06:45:21.920Z,1.32
2023-01-25T06:47:50.235Z,1.39
2023-01-25T06:50:18.256Z,1.43
2023-01-25T06:52:53.109Z,1.48
2023-01-25T06:55:21.208Z,1.50
2023-01-25T06:57:49.506Z,1.52
2023-01-25T07:00:19.785Z,1.55
2023-01-25T07:02:47.782Z,1.59
2023-01-25T07:05:15.894Z,1.58
2023-01-25T07:07:46.092Z,1.57
2023-01-25T07:10:14.027Z,1.47
2023-01-25T07:12:41.974Z,1.59
2023-01-25T07:15:10.878Z,1.64
2023-01-25T07:17:40.285Z,1.70
2023-01-25T07:20:09.500Z,1.76
2023-01-25T07:22:37.398Z,1.79
2023-01-25T07:25:07.022Z,1.82
2023-01-25T07:27:35.422Z,1.86
2023-01-25T07:30:04.004Z,1.89
2023-01-25T07:32:32.116Z,1.91
2023-01-25T07:35:01.335Z,1.93
2023-01-25T07:37:29.335Z,1.93
2023-01-25T07:39:58.209Z,1.95
2023-01-25T07:42:26.403Z,1.97
2023-01-25T07:45:12.315Z,1.99
2023-01-25T07:47:40.507Z,2.00
2023-01-25T07:50:11.917Z,2.01
2023-01-25T07:52:40.113Z,2.01
2023-01-25T07:55:08.794Z,2.03
2023-01-25T07:57:36.862Z,2.05
2023-01-25T08:00:07.167Z,2.06
2023-01-25T08:02:40.330Z,2.03
2023-01-25T08:05:11.452Z,2.09
2023-01-25T08:07:39.519Z,2.12
2023-01-25T08:10:08.128Z,2.11
2023-01-25T08:12:36.189Z,1.94
2023-01-25T08:15:04.711Z,2.11
2023-01-25T08:17:33.324Z,2.00
2023-01-25T08:20:01.684Z,2.15
2023-01-25T08:22:31.021Z,2.15
2023-01-25T08:25:01.144Z,2.20
2023-01-25T08:27:29.092Z,2.25
2023-01-25T08:29:57.037Z,2.23
2023-01-25T08:32:24.875Z,2.26
2023-01-25T08:34:52.791Z,2.29
2023-01-25T08:37:20.608Z,2.29
2023-01-25T08:39:50.106Z,2.30
2023-01-25T08:42:17.982Z,2.28
2023-01-25T08:44:45.888Z,2.31
2023-01-25T08:47:13.762Z,2.33
2023-01-25T08:49:41.943Z,2.35
2023-01-25T08:52:09.829Z,2.37
2023-01-25T08:54:37.681Z,2.40
2023-01-25T08:57:06.884Z,2.40
2023-01-25T08:59:34.721Z,2.40
2023-01-25T09:02:02.648Z,2.42
2023-01-25T09:04:30.596Z,2.38
2023-01-25T09:06:58.658Z,2.36
2023-01-25T09:09:26.642Z,2.38
2023-01-25T09:11:54.532Z,2.40
2023-01-25T09:14:24.023Z,2.40
2023-01-25T09:16:51.976Z,2.39
2023-01-25T09:19:19.874Z,2.37
2023-01-25T09:21:48.320Z,2.35
2023-01-25T09:24:16.201Z,2.32
2023-01-25T09:26:50.065Z,2.28
2023-01-25T09:29:26.356Z,2.23
2023-01-25T09:31:54.263Z,2.28
2023-01-25T09:34:42.646Z,2.21
2023-01-25T09:37:10.525Z,2.34
2023-01-25T09:39:38.394Z,2.42
2023-01-25T09:42:32.823Z,2.43
2023-01-25T09:45:22.542Z,2.38
2023-01-25T09:47:59.193Z,2.43
2023-01-25T09:50:36.545Z,2.43
2023-01-25T09:53:21.583Z,2.46
2023-01-25T09:55:55.539Z,2.46
2023-01-25T09:58:28.456Z,2.43
2023-01-25T10:01:13.883Z,2.42
2023-01-25T10:03:50.865Z,2.44
2023-01-25T10:06:23.350Z,2.56
2023-01-25T10:09:01.009Z,2.66
2023-01-25T10:11:31.369Z,2.67
2023-01-25T10:14:00.570Z,2.73
2023-01-25T10:16:34.855Z,2.68
2023-01-25T10:19:15.308Z,2.48
2023-01-25T10:21:46.515Z,2.58
2023-01-25T10:24:32.105Z,2.70
2023-01-25T10:27:04.441Z,2.69
2023-01-25T10:29:34.134Z,2.78
2023-01-25T10:32:15.635Z,2.73
2023-01-25T10:34:56.222Z,2.72
2023-01-25T10:37:29.481Z,2.92
2023-01-25T10:40:02.119Z,3.08
2023-01-25T10:42:40.698Z,3.29
2023-01-25T10:45:13.102Z,3.21
2023-01-25T10:47:45.039Z,3.15
2023-01-25T10:50:46.556Z,3.17
2023-01-25T10:53:26.622Z,3.10
2023-01-25T10:56:22.159Z,3.06
2023-01-25T10:58:54.380Z,3.05
2023-01-25T11:01:29.851Z,3.14
2023-01-25T11:04:00.416Z,3.12
2023-01-25T11:06:36.806Z,3.15
2023-01-25T11:09:32.753Z,3.07
2023-01-25T11:12:02.704Z,3.06
2023-01-25T11:14:32.171Z,3.13
2023-01-25T11:17:02.085Z,3.20
2023-01-25T11:19:34.371Z,3.17
2023-01-25T11:22:05.387Z,3.24
2023-01-25T11:24:36.550Z,3.27
2023-01-25T11:27:18.981Z,3.05
2023-01-25T11:30:09.692Z,3.11
2023-01-25T11:32:39.783Z,3.12
2023-01-25T11:35:14.193Z,3.15
2023-01-25T11:38:03.349Z,3.26
2023-01-25T11:40:39.068Z,3.32
2023-01-25T11:43:25.347Z,3.34
2023-01-25T11:46:07.674Z,3.32
2023-01-25T11:48:51.611Z,3.37
2023-01-25T11:51:27.307Z,3.44
2023-01-25T11:54:06.527Z,3.51
2023-01-25T11:56:50.261Z,3.59
2023-01-25T11:59:45.236Z,3.61
2023-01-25T12:02:33.864Z,3.55
2023-01-25T12:05:21.796Z,3.59
2023-01-25T12:08:02.229Z,3.62
2023-01-25T12:10:41.164Z,3.64
2023-01-25T12:13:18.720Z,3.54
2023-01-25T12:16:13.623Z,3.41
2023-01-25T12:19:04.623Z,3.36
2023-01-25T12:21:46.001Z,3.41
2023-01-25T12:24:27.781Z,3.45
2023-01-25T12:27:06.511Z,3.45
2023-01-25T12:29:40.654Z,3.47
2023-01-25T12:32:13.785Z,3.52
2023-01-25T12:34:48.609Z,3.57
2023-01-25T12:37:20.095Z,3.56
2023-01-25T12:39:52.538Z,3.50
2023-01-25T12:42:25.954Z,3.46
2023-01-25T12:45:00.534Z,3.44
2023-01-25T12:47:36.074Z,3.38
2023-01-25T12:50:15.508Z,3.30
2023-01-25T12:52:49.024Z,3.38
2023-01-25T12:55:18.706Z,3.28
2023-01-25T12:57:57.618Z,3.31
2023-01-25T13:00:36.170Z,3.32
2023-01-25T13:03:17.637Z,3.37
2023-01-25T13:05:53.038Z,3.31
2023-01-25T13:08:32.954Z,3.40
2023-01-25T13:11:10.684Z,3.30
2023-01-25T13:13:38.787Z,3.29
2023-01-25T13:16:37.636Z,3.23
2023-01-25T13:19:05.682Z,3.30
2023-01-25T13:21:42.407Z,3.34
2023-01-25T13:24:17.267Z,3.36
2023-01-25T13:26:50.835Z,3.33
2023-01-25T13:29:49.576Z,3.34
2023-01-25T13:32:56.467Z,3.32
2023-01-25T13:35:35.820Z,3.32
2023-01-25T13:38:07.459Z,3.36
2023-01-25T13:40:37.352Z,3.36
2023-01-25T13:43:17.441Z,3.34
2023-01-25T13:45:49.034Z,3.28
2023-01-25T13:48:21.456Z,3.21
2023-01-25T13:50:52.290Z,3.21
2023-01-25T13:53:23.373Z,3.21
2023-01-25T13:55:53.724Z,3.22
2023-01-25T13:58:23.326Z,3.17
2023-01-25T14:00:54.105Z,3.15
2023-01-25T14:03:27.628Z,3.07
2023-01-25T14:05:57.701Z,2.95
2023-01-25T14:08:27.411Z,2.74
2023-01-25T14:10:56.110Z,2.54
2023-01-25T14:13:23.937Z,2.65
2023-01-25T14:15:57.409Z,2.65
2023-01-25T14:18:31.984Z,2.61
2023-01-25T14:21:18.883Z,2.64
2023-01-25T14:23:48.532Z,2.69
2023-01-25T14:26:20.688Z,2.73
2023-01-25T14:28:59.526Z,2.67
2023-01-25T14:31:34.323Z,2.69
2023-01-25T14:34:06.141Z,2.70
2023-01-25T14:36:35.240Z,2.71
2023-01-25T14:39:04.942Z,2.69
2023-01-25T14:41:35.362Z,2.67
2023-01-25T14:44:05.390Z,2.64
2023-01-25T14:46:34.973Z,2.56
2023-01-25T14:49:29.089Z,2.59
2023-01-25T14:52:03.264Z,2.60
2023-01-25T14:54:33.898Z,2.61
2023-01-25T14:57:03.883Z,2.59
2023-01-25T14:59:36.800Z,2.65
2023-01-25T15:02:17.772Z,2.68
2023-01-25T15:04:55.609Z,2.63
2023-01-25T15:07:43.038Z,2.65
2023-01-25T15:10:20.154Z,2.62
2023-01-25T15:13:07.641Z,2.62
2023-01-25T15:15:51.881Z,2.64
2023-01-25T15:18:44.251Z,2.67
2023-01-25T15:21:15.469Z,2.56
2023-01-25T15:23:45.473Z,2.67
2023-01-25T15:26:18.967Z,2.70
2023-01-25T15:28:47.693Z,2.72
2023-01-25T15:31:20.039Z,2.70
2023-01-25T15:33:48.390Z,2.70
2023-01-25T15:36:18.603Z,2.68
2023-01-25T15:38:46.621Z,2.69
2023-01-25T15:41:15.101Z,2.71
2023-01-25T15:43:43.128Z,2.71
2023-01-25T15:46:17.685Z,2.68
2023-01-25T15:48:47.275Z,2.65
2023-01-25T15:51:15.156Z,2.66
2023-01-25T15:53:44.512Z,2.62
2023-01-25T15:56:17.076Z,2.65
2023-01-25T15:58:48.206Z,2.64
2023-01-25T16:01:16.425Z,2.63
2023-01-25T16:03:44.303Z,2.63
2023-01-25T16:06:27.056Z,2.58
2023-01-25T16:08:58.639Z,2.60
2023-01-25T16:11:26.727Z,2.62
2023-01-25T16:13:54.746Z,2.65
2023-01-25T16:16:24.917Z,2.69
2023-01-25T16:18:52.933Z,2.63
2023-01-25T16:21:20.797Z,2.71
2023-01-25T16:23:48.725Z,2.72
2023-01-25T16:26:20.937Z,2.68
2023-01-25T16:28:48.849Z,2.72
2023-01-25T16:31:31.375Z,2.58
2023-01-25T16:34:00.928Z,2.67
2023-01-25T16:36:29.594Z,2.65
2023-01-25T16:38:57.492Z,2.63
2023-01-25T16:41:26.729Z,2.62
2023-01-25T16:43:54.572Z,2.57
2023-01-25T16:46:24.590Z,2.59
2023-01-25T16:48:53.565Z,2.59
2023-01-25T16:51:24.647Z,2.60
2023-01-25T16:53:56.217Z,2.63
2023-01-25T16:56:27.035Z,2.64
2023-01-25T16:58:56.413Z,2.64
2023-01-25T17:01:26.208Z,2.66
2023-01-25T17:03:55.784Z,2.70
2023-01-25T17:06:26.997Z,2.71
2023-01-25T17:08:58.864Z,2.72
2023-01-25T17:11:29.308Z,2.68
2023-01-25T17:13:59.227Z,2.70
2023-01-25T17:16:29.087Z,2.73
2023-01-25T17:19:00.320Z,2.71
2023-01-25T17:21:28.679Z,2.72
2023-01-25T17:23:58.346Z,2.71
2023-01-25T17:26:28.382Z,2.74
2023-01-25T17:28:56.804Z,2.73
2023-01-25T17:31:27.336Z,2.74
2023-01-25T17:33:56.428Z,2.78
2023-01-25T17:36:24.335Z,2.78
2023-01-25T17:38:54.002Z,2.74
2023-01-25T17:41:22.016Z,2.78
2023-01-25T17:43:53.517Z,2.78
2023-01-25T17:46:25.410Z,2.76
2023-01-25T17:48:54.272Z,2.78
2023-01-25T17:51:24.822Z,2.76
2023-01-25T17:53:53.105Z,2.63
2023-01-25T17:56:21.422Z,2.78
2023-01-25T17:58:49.398Z,2.75
2023-01-25T18:01:20.777Z,2.74
2023-01-25T18:03:50.270Z,2.75
2023-01-25T18:06:21.048Z,2.76
2023-01-25T18:08:50.675Z,2.67
2023-01-25T18:11:20.731Z,2.69
2023-01-25T18:13:50.713Z,2.71
2023-01-25T18:16:22.214Z,2.76
2023-01-25T18:18:51.570Z,2.80
2023-01-25T18:21:24.104Z,2.85
2023-01-25T18:23:54.046Z,2.87
2023-01-25T18:26:23.762Z,2.92
2023-01-25T18:28:54.202Z,2.95
2023-01-25T18:31:23.421Z,2.94
2023-01-25T18:33:51.408Z,2.96
2023-01-25T18:36:20.158Z,2.92
2023-01-25T18:38:48.151Z,2.90
2023-01-25T18:41:16.257Z,2.88
2023-01-25T18:43:44.184Z,2.93
2023-01-25T18:46:12.823Z,2.97
2023-01-25T18:48:43.641Z,2.96
2023-01-25T18:51:13.197Z,2.93
2023-01-25T18:53:43.511Z,2.91
2023-01-25T18:56:14.106Z,2.90
2023-01-25T18:58:42.019Z,2.91
2023-01-25T19:01:12.683Z,2.89
2023-01-25T19:03:42.275Z,2.88
2023-01-25T19:06:10.522Z,2.88
2023-01-25T19:08:41.529Z,2.84
2023-01-25T19:11:11.383Z,2.86
2023-01-25T19:13:40.479Z,2.86
2023-01-25T19:16:11.689Z,2.87
2023-01-25T19:18:46.328Z,2.87
2023-01-25T19:21:16.207Z,2.89
2023-01-25T19:23:44.535Z,2.89
2023-01-25T19:26:15.906Z,2.88
2023-01-25T19:28:44.840Z,2.89
2023-01-25T19:31:14.431Z,2.85
2023-01-25T19:33:44.513Z,2.83
2023-01-25T19:36:16.759Z,2.84
2023-01-25T19:38:46.372Z,2.78
2023-01-25T19:41:15.665Z,2.85
2023-01-25T19:43:43.914Z,2.88
2023-01-25T19:46:13.999Z,2.79
2023-01-25T19:48:44.860Z,2.83
2023-01-25T19:51:15.157Z,2.82
2023-01-25T19:53:46.560Z,2.84
2023-01-25T19:56:16.384Z,2.89
2023-01-25T19:58:45.376Z,2.89
2023-01-25T20:01:16.176Z,2.91
2023-01-25T20:03:45.828Z,2.90
2023-01-25T20:06:15.031Z,2.88
2023-01-25T20:08:44.365Z,2.91
2023-01-25T20:11:13.788Z,2.93
2023-01-25T20:13:42.129Z,2.95
2023-01-25T20:16:11.589Z,2.95
2023-01-25T20:18:39.663Z,2.94
2023-01-25T20:21:12.238Z,2.93
2023-01-25T20:23:41.732Z,2.92
2023-01-25T20:26:13.584Z,2.92
2023-01-25T20:28:43.089Z,2.90
2023-01-25T20:31:20.412Z,2.94
2023-01-25T20:33:48.861Z,2.78
2023-01-25T20:36:18.372Z,2.95
2023-01-25T20:38:47.291Z,2.97
2023-01-25T20:41:17.331Z,2.97
2023-01-25T20:43:49.152Z,2.97
2023-01-25T20:46:17.656Z,2.96
2023-01-25T20:48:45.894Z,2.99
2023-01-25T20:51:17.092Z,2.98
2023-01-25T20:53:46.916Z,2.94
2023-01-25T20:56:15.476Z,2.91
2023-01-25T20:58:45.904Z,2.92
2023-01-25T21:01:15.395Z,2.95
2023-01-25T21:03:43.414Z,2.95
2023-01-25T21:06:12.171Z,2.95
2023-01-25T21:08:40.552Z,2.96
2023-01-25T21:11:11.480Z,2.98
2023-01-25T21:13:39.398Z,2.98
2023-01-25T21:16:10.103Z,2.98
2023-01-25T21:18:39.893Z,3.00
2023-01-25T21:21:09.998Z,2.98
2023-01-25T21:23:40.238Z,2.98
2023-01-25T21:26:14.398Z,2.99
2023-01-25T21:28:42.360Z,3.03
2023-01-25T21:31:11.818Z,3.03
2023-01-25T21:33:40.671Z,2.98
2023-01-25T21:36:11.552Z,3.06
2023-01-25T21:38:40.509Z,3.07
2023-01-25T21:41:12.680Z,2.90
2023-01-25T21:43:58.437Z,3.05
2023-01-25T21:46:27.764Z,3.05
2023-01-25T21:49:13.785Z,3.04
2023-01-25T21:51:49.420Z,3.01
2023-01-25T21:54:18.387Z,2.99
2023-01-25T21:56:48.915Z,3.03
2023-01-25T21:59:17.042Z,2.97
2023-01-25T22:01:45.798Z,2.98
2023-01-25T22:04:15.083Z,2.95
2023-01-25T22:06:43.717Z,2.95
2023-01-25T22:09:13.888Z,2.94
2023-01-25T22:11:42.058Z,2.99
2023-01-25T22:14:11.266Z,3.01
2023-01-25T22:16:39.161Z,3.03
2023-01-25T22:19:07.441Z,3.05
2023-01-25T22:21:35.576Z,3.04
2023-01-25T22:24:05.908Z,3.03
2023-01-25T22:26:43.844Z,3.02
2023-01-25T22:29:13.857Z,3.02
2023-01-25T22:31:41.905Z,3.03
2023-01-25T22:34:11.012Z,3.03
2023-01-25T22:36:39.184Z,3.05
2023-01-25T22:39:07.201Z,3.06
2023-01-25T22:41:38.496Z,3.06
2023-01-25T22:44:06.551Z,3.03
2023-01-25T22:46:35.777Z,3.02
2023-01-25T22:49:05.789Z,3.02
2023-01-25T22:51:33.728Z,3.02
2023-01-25T22:54:01.782Z,3.00
2023-01-25T22:56:31.725Z,3.01
2023-01-25T22:59:00.795Z,3.02
2023-01-25T23:01:30.024Z,3.04
2023-01-25T23:04:00.017Z,3.01
2023-01-25T23:06:29.470Z,2.92
2023-01-25T23:08:59.732Z,2.98
2023-01-25T23:11:35.672Z,2.98
2023-01-25T23:14:22.235Z,2.92
2023-01-25T23:16:50.112Z,2.74
2023-01-25T23:19:18.453Z,2.87
2023-01-25T23:21:46.380Z,2.88
2023-01-25T23:24:14.481Z,2.90
2023-01-25T23:26:46.119Z,2.89
2023-01-25T23:29:14.594Z,2.92
2023-01-25T23:31:43.055Z,2.90
2023-01-25T23:34:12.520Z,2.90
2023-01-25T23:36:42.408Z,2.89
2023-01-25T23:39:12.479Z,2.89
2023-01-25T23:41:40.739Z,2.89
2023-01-25T23:44:09.117Z,2.82
2023-01-25T23:46:37.491Z,2.92
2023-01-25T23:49:05.487Z,2.89
2023-01-25T23:51:33.299Z,2.87
2023-01-25T23:54:02.572Z,2.85
2023-01-25T23:56:30.423Z,2.84
2023-01-25T23:58:58.506Z,2.85
